Time;durP1;ratioP1;P1;durP2;ratioP2;P2;SDS_P1;SDS_P2;PMS_P1;PMS_P2;Temp;Humidity;BMP_temperature;BMP_pressure;BME280_temperature;BME280_humidity;BME280_pressure;Samples;Min_cycle;Max_cycle;Signal;HPM_P1;HPM_P2
2023/03/05 00:00:51;;;;;;;10.57;3.83;;;3.10;99.90;;;;;;5005405;28;20128;-71
2023/03/05 00:03:17;;;;;;;11.73;4.13;;;3.00;99.90;;;;;;5010366;28;20041;-70
2023/03/05 00:05:42;;;;;;;21.55;4.60;;;3.00;99.90;;;;;;4991720;28;20049;-71
2023/03/05 00:08:08;;;;;;;14.05;3.47;;;3.00;99.90;;;;;;5008126;28;20441;-71
2023/03/05 00:10:34;;;;;;;16.10;3.92;;;3.00;99.90;;;;;;5010667;28;20057;-71
2023/03/05 00:12:59;;;;;;;15.18;3.13;;;3.00;99.90;;;;;;5010429;28;20054;-70
2023/03/05 00:15:25;;;;;;;17.88;3.28;;;2.90;99.90;;;;;;5010402;28;20049;-71
2023/03/05 00:17:51;;;;;;;19.10;3.47;;;3.00;99.90;;;;;;5007115;28;20136;-71
2023/03/05 00:20:17;;;;;;;12.02;3.20;;;3.10;99.90;;;;;;5006599;28;20047;-70
2023/03/05 00:22:43;;;;;;;14.63;4.43;;;3.00;99.90;;;;;;4994834;28;20053;-71
2023/03/05 00:25:09;;;;;;;14.18;4.30;;;3.00;99.90;;;;;;5010188;28;20069;-71
2023/03/05 00:27:35;;;;;;;14.02;4.30;;;2.90;99.90;;;;;;4993497;28;20038;-71
2023/03/05 00:30:01;;;;;;;19.27;4.68;;;2.90;99.90;;;;;;5009190;28;20466;-72
2023/03/05 00:32:27;;;;;;;16.40;3.65;;;2.90;99.90;;;;;;4977814;28;20076;-70
2023/03/05 00:34:53;;;;;;;17.52;3.92;;;2.90;99.90;;;;;;5012483;28;20073;-71
2023/03/05 00:37:18;;;;;;;13.40;3.90;;;2.90;99.90;;;;;;5009118;28;20052;-71
2023/03/05 00:39:44;;;;;;;13.07;4.05;;;2.90;99.90;;;;;;4991950;28;20052;-70
2023/03/05 00:42:10;;;;;;;16.80;4.10;;;2.80;99.90;;;;;;4992801;28;20042;-70
2023/03/05 00:44:36;;;;;;;15.98;3.78;;;2.80;99.90;;;;;;4993102;28;20129;-70
2023/03/05 00:47:03;;;;;;;14.43;3.85;;;2.70;99.90;;;;;;4992939;28;20046;-72
2023/03/05 00:49:29;;;;;;;15.25;4.30;;;2.70;99.90;;;;;;4991920;28;20051;-72
2023/03/05 00:51:55;;;;;;;13.73;3.70;;;2.70;99.90;;;;;;5010098;28;20112;-71
2023/03/05 00:54:21;;;;;;;11.68;3.92;;;2.70;99.90;;;;;;5009962;28;20053;-71
2023/03/05 00:56:48;;;;;;;15.80;4.07;;;2.80;99.90;;;;;;5009948;28;20050;-71
2023/03/05 00:59:13;;;;;;;13.38;3.47;;;2.80;99.90;;;;;;4983663;28;20660;-70
2023/03/05 01:01:39;;;;;;;11.55;3.63;;;2.80;99.90;;;;;;4986631;28;20133;-70
2023/03/05 01:04:05;;;;;;;17.30;4.30;;;2.80;99.90;;;;;;5009621;28;20042;-71
2023/03/05 01:06:30;;;;;;;10.18;4.07;;;2.70;99.90;;;;;;5006523;28;20117;-70
2023/03/05 01:08:58;;;;;;;12.48;3.80;;;2.70;99.90;;;;;;4992619;28;20085;-70
2023/03/05 01:11:24;;;;;;;13.57;3.73;;;2.70;99.90;;;;;;5009938;28;20367;-71
2023/03/05 01:13:49;;;;;;;17.83;4.43;;;2.80;99.90;;;;;;5010131;28;20283;-70
2023/03/05 01:16:15;;;;;;;14.45;5.13;;;2.70;99.90;;;;;;4988136;28;20053;-70
2023/03/05 01:18:41;;;;;;;12.45;3.97;;;2.60;99.90;;;;;;5005489;28;20065;-70
2023/03/05 01:21:06;;;;;;;12.70;3.80;;;2.70;99.90;;;;;;4991320;28;20049;-71
2023/03/05 01:23:34;;;;;;;12.07;3.20;;;2.70;99.90;;;;;;4993114;28;20096;-71
2023/03/05 01:26:00;;;;;;;16.05;4.50;;;2.80;99.90;;;;;;4985216;28;20120;-70
2023/03/05 01:28:26;;;;;;;15.10;3.70;;;2.70;99.90;;;;;;5006860;28;20049;-70
2023/03/05 01:30:52;;;;;;;15.10;4.22;;;2.70;99.90;;;;;;5002839;28;20123;-71
2023/03/05 01:33:18;;;;;;;15.50;4.90;;;2.70;99.90;;;;;;4972021;28;20374;-70
2023/03/05 01:35:46;;;;;;;11.73;3.92;;;2.70;99.90;;;;;;5006073;28;20149;-71
2023/03/05 01:38:12;;;;;;;11.60;4.03;;;2.80;99.90;;;;;;4991965;28;20429;-70
2023/03/05 01:40:38;;;;;;;16.92;4.90;;;2.70;99.90;;;;;;5010315;28;20057;-70
2023/03/05 01:43:11;;;;;;;12.23;4.30;;;2.70;99.90;;;;;;5009963;28;20088;-70
2023/03/05 01:45:37;;;;;;;14.25;4.63;;;2.70;99.90;;;;;;5002682;28;20541;-70
2023/03/05 01:48:03;;;;;;;22.38;4.97;;;2.70;99.90;;;;;;4998121;28;20141;-70
2023/03/05 01:50:29;;;;;;;13.70;5.00;;;2.80;99.90;;;;;;4976726;28;20129;-71
2023/03/05 01:53:03;;;;;;;18.15;5.88;;;2.80;99.90;;;;;;5010285;28;20045;-70
2023/03/05 01:55:29;;;;;;;17.55;5.85;;;2.70;99.90;;;;;;5010094;28;20055;-70
2023/03/05 01:58:07;;;;;;;15.80;6.20;;;2.70;99.90;;;;;;4995015;28;20073;-71
2023/03/05 02:00:43;;;;;;;12.95;4.88;;;2.60;99.90;;;;;;5003487;28;20042;-70
2023/03/05 02:03:10;;;;;;;18.88;6.45;;;2.60;99.90;;;;;;4989983;28;20669;-70
2023/03/05 02:05:36;;;;;;;12.43;5.68;;;2.70;99.90;;;;;;5013652;28;20045;-69
2023/03/05 02:08:06;;;;;;;14.93;5.05;;;2.80;99.90;;;;;;4992204;28;20042;-70
2023/03/05 02:10:37;;;;;;;15.23;4.60;;;2.70;99.90;;;;;;4985902;28;20058;-70
2023/03/05 02:13:05;;;;;;;14.05;4.70;;;2.70;99.90;;;;;;5004520;28;20057;-70
2023/03/05 02:15:31;;;;;;;18.10;4.65;;;2.60;99.90;;;;;;4991847;28;20995;-70
2023/03/05 02:17:57;;;;;;;17.13;4.75;;;2.70;99.90;;;;;;5009279;28;20053;-71
2023/03/05 02:20:29;;;;;;;17.67;4.63;;;2.70;99.90;;;;;;4976422;28;20077;-70
2023/03/05 02:22:55;;;;;;;15.40;4.82;;;2.70;99.90;;;;;;4992856;28;20132;-69
2023/03/05 02:25:26;;;;;;;15.43;4.93;;;2.70;99.90;;;;;;5011010;28;20097;-71
2023/03/05 02:28:07;;;;;;;14.77;5.13;;;2.70;99.90;;;;;;5008885;28;20046;-71
2023/03/05 02:30:34;;;;;;;17.67;5.20;;;2.70;99.90;;;;;;5009612;28;20041;-70
2023/03/05 02:33:00;;;;;;;12.10;3.53;;;2.70;99.90;;;;;;4993548;28;20045;-71
2023/03/05 02:35:27;;;;;;;13.15;3.97;;;2.70;99.90;;;;;;4992165;28;20056;-70
2023/03/05 02:37:54;;;;;;;14.43;4.32;;;2.60;99.90;;;;;;5007157;28;20046;-71
2023/03/05 02:40:20;;;;;;;12.52;3.85;;;2.50;99.90;;;;;;5006628;28;20041;-71
2023/03/05 02:42:46;;;;;;;10.40;3.45;;;2.60;99.90;;;;;;5009558;28;20049;-71
2023/03/05 02:45:12;;;;;;;16.83;4.32;;;2.60;99.90;;;;;;4972426;28;20072;-70
2023/03/05 02:47:38;;;;;;;16.10;4.03;;;2.60;99.90;;;;;;4990773;28;20042;-70
2023/03/05 02:50:04;;;;;;;16.83;4.60;;;2.60;99.90;;;;;;4976044;28;20568;-70
2023/03/05 02:52:30;;;;;;;17.45;4.28;;;2.50;99.90;;;;;;4986194;28;20546;-70
2023/03/05 02:54:56;;;;;;;18.55;4.70;;;2.50;99.90;;;;;;4992536;28;20065;-70
2023/03/05 02:57:22;;;;;;;18.08;4.85;;;2.60;99.90;;;;;;4991675;28;20046;-70
2023/03/05 02:59:47;;;;;;;19.40;5.00;;;2.50;99.90;;;;;;5008993;28;20143;-70
2023/03/05 03:02:13;;;;;;;14.75;4.57;;;2.50;99.90;;;;;;4992499;28;20052;-71
2023/03/05 03:04:40;;;;;;;11.82;4.13;;;2.50;99.90;;;;;;4992310;28;20076;-70
2023/03/05 03:07:05;;;;;;;13.65;4.68;;;2.60;99.90;;;;;;5009085;28;20080;-70
2023/03/05 03:09:34;;;;;;;20.58;5.30;;;2.40;99.90;;;;;;4990338;28;20491;-70
2023/03/05 03:12:00;;;;;;;19.77;6.25;;;2.30;99.90;;;;;;5009784;28;20085;-70
2023/03/05 03:14:26;;;;;;;17.15;5.88;;;2.30;99.90;;;;;;5002302;28;20520;-70
2023/03/05 03:16:53;;;;;;;20.35;6.18;;;2.20;99.90;;;;;;5004774;28;20152;-69
2023/03/05 03:19:19;;;;;;;18.48;6.13;;;2.20;99.90;;;;;;5008372;28;20049;-70
2023/03/05 03:21:45;;;;;;;14.43;4.93;;;2.20;99.90;;;;;;4991473;28;20112;-70
2023/03/05 03:24:10;;;;;;;19.30;5.28;;;2.20;99.90;;;;;;5008527;28;20049;-69
2023/03/05 03:26:36;;;;;;;24.45;5.45;;;2.20;99.90;;;;;;5008049;28;20588;-69
2023/03/05 03:29:02;;;;;;;20.13;5.05;;;2.30;99.90;;;;;;4993489;28;20049;-70
2023/03/05 03:31:28;;;;;;;18.48;4.75;;;2.30;99.90;;;;;;4994862;28;20530;-69
2023/03/05 03:33:54;;;;;;;17.80;4.70;;;2.40;99.90;;;;;;5006342;28;20058;-69
2023/03/05 03:36:21;;;;;;;19.00;5.20;;;2.40;99.90;;;;;;4990288;28;20362;-70
2023/03/05 03:38:46;;;;;;;22.52;4.78;;;2.30;99.90;;;;;;4991407;28;20050;-69
2023/03/05 03:41:12;;;;;;;16.33;4.80;;;2.40;99.90;;;;;;4972524;28;20490;-70
2023/03/05 03:43:38;;;;;;;21.92;5.18;;;2.30;99.90;;;;;;4991847;28;20048;-70
2023/03/05 03:46:05;;;;;;;13.77;4.55;;;2.40;99.90;;;;;;5008096;28;20037;-70
2023/03/05 03:48:31;;;;;;;17.30;4.57;;;2.30;99.90;;;;;;5006969;28;20054;-70
2023/03/05 03:50:57;;;;;;;16.30;4.80;;;2.40;99.90;;;;;;5005135;28;20133;-70
2023/03/05 03:53:22;;;;;;;11.98;4.40;;;2.40;99.90;;;;;;4996440;28;20088;-69
2023/03/05 03:55:48;;;;;;;18.25;6.22;;;2.40;99.90;;;;;;5005524;28;20050;-70
2023/03/05 03:58:14;;;;;;;22.67;5.00;;;2.40;99.90;;;;;;5007718;28;20482;-70
2023/03/05 04:00:40;;;;;;;16.38;5.05;;;2.40;99.90;;;;;;5007540;28;20048;-69
2023/03/05 04:03:06;;;;;;;22.80;5.97;;;2.40;99.90;;;;;;5010217;28;20375;-70
2023/03/05 04:05:32;;;;;;;20.27;6.32;;;2.40;99.90;;;;;;5011400;28;20160;-71
2023/03/05 04:07:58;;;;;;;17.27;5.75;;;2.40;99.90;;;;;;4992652;28;20177;-70
2023/03/05 04:10:25;;;;;;;19.45;5.45;;;2.50;99.90;;;;;;5009242;28;20065;-70
2023/03/05 04:12:51;;;;;;;16.20;5.70;;;2.40;99.90;;;;;;5010208;28;20042;-69
2023/03/05 04:15:17;;;;;;;17.00;5.57;;;2.50;99.90;;;;;;4989829;28;20478;-70
2023/03/05 04:17:42;;;;;;;15.25;6.00;;;2.40;99.90;;;;;;4998780;28;20508;-70
2023/03/05 04:20:09;;;;;;;18.38;6.03;;;2.50;99.90;;;;;;4977437;28;20053;-70
2023/03/05 04:22:36;;;;;;;15.10;5.63;;;2.50;99.90;;;;;;5008706;28;20046;-71
2023/03/05 04:25:05;;;;;;;17.45;5.90;;;2.50;99.90;;;;;;5009313;28;20790;-69
2023/03/05 04:27:33;;;;;;;23.23;6.28;;;2.60;99.90;;;;;;5007110;28;20056;-69
2023/03/05 04:29:59;;;;;;;19.60;5.35;;;2.50;99.90;;;;;;5009607;28;20054;-70
2023/03/05 04:32:25;;;;;;;17.65;6.93;;;2.50;99.90;;;;;;5012261;28;20117;-69
2023/03/05 04:34:51;;;;;;;17.88;6.13;;;2.40;99.90;;;;;;5010322;28;20133;-70
2023/03/05 04:37:16;;;;;;;14.70;5.10;;;2.60;99.90;;;;;;4993830;28;20691;-69
2023/03/05 04:39:42;;;;;;;14.77;6.05;;;2.50;99.90;;;;;;4993323;28;20061;-70
2023/03/05 04:42:09;;;;;;;17.70;6.10;;;2.50;99.90;;;;;;4977151;28;20051;-69
2023/03/05 04:44:35;;;;;;;17.38;6.25;;;2.50;99.90;;;;;;5010591;28;20046;-69
2023/03/05 04:47:01;;;;;;;12.35;5.70;;;2.50;99.90;;;;;;4976727;28;20042;-70
2023/03/05 04:49:27;;;;;;;15.27;5.68;;;2.50;99.90;;;;;;4992625;28;20053;-69
2023/03/05 04:51:53;;;;;;;21.50;6.75;;;2.60;99.90;;;;;;5009485;28;20116;-70
2023/03/05 04:54:18;;;;;;;15.18;5.68;;;2.50;99.90;;;;;;5008972;28;20054;-70
2023/03/05 04:56:44;;;;;;;14.82;5.80;;;2.60;99.90;;;;;;5010221;28;20050;-70
2023/03/05 04:59:10;;;;;;;13.18;5.72;;;2.50;99.90;;;;;;4988901;28;20058;-69
2023/03/05 05:01:36;;;;;;;15.15;6.80;;;2.60;99.90;;;;;;5009468;28;20510;-69
2023/03/05 05:04:01;;;;;;;22.20;6.78;;;2.60;99.90;;;;;;5003201;28;20074;-70
2023/03/05 05:06:27;;;;;;;17.10;6.30;;;2.50;99.90;;;;;;5009897;28;20148;-69
2023/03/05 05:08:53;;;;;;;12.93;5.95;;;2.40;99.90;;;;;;5007716;28;20663;-71
2023/03/05 05:11:19;;;;;;;15.13;5.72;;;2.50;99.90;;;;;;5003748;28;20128;-70
2023/03/05 05:13:46;;;;;;;15.73;5.55;;;2.40;99.90;;;;;;5010585;28;20046;-70
2023/03/05 05:16:15;;;;;;;14.50;6.10;;;2.40;99.90;;;;;;5013370;28;20056;-69
2023/03/05 05:18:40;;;;;;;;;;;2.40;99.90;;;;;;5014078;28;20042;-69
2023/03/05 05:21:07;;;;;;;14.13;5.35;;;2.50;99.90;;;;;;5012567;28;20119;-69
2023/03/05 05:23:34;;;;;;;16.83;5.33;;;2.50;99.90;;;;;;5007601;28;20822;-70
2023/03/05 05:26:00;;;;;;;14.82;6.03;;;2.40;99.90;;;;;;5012169;28;20045;-70
2023/03/05 05:28:26;;;;;;;18.90;5.57;;;2.50;99.90;;;;;;5013355;28;20056;-70
2023/03/05 05:30:52;;;;;;;10.40;4.78;;;2.50;99.90;;;;;;4993834;28;20054;-69
2023/03/05 05:33:18;;;;;;;15.57;5.35;;;2.50;99.90;;;;;;4996530;28;20060;-70
2023/03/05 05:35:44;;;;;;;8.82;5.03;;;2.50;99.90;;;;;;5012276;28;20125;-69
2023/03/05 05:38:09;;;;;;;11.07;5.00;;;2.50;99.90;;;;;;5012905;28;20129;-70
2023/03/05 05:40:35;;;;;;;13.32;5.20;;;2.50;99.90;;;;;;4993588;28;20056;-69
2023/03/05 05:43:01;;;;;;;9.93;5.50;;;2.50;99.90;;;;;;4979036;28;20117;-69
2023/03/05 05:45:27;;;;;;;12.68;5.00;;;2.50;99.90;;;;;;5013026;28;20108;-69
2023/03/05 05:47:52;;;;;;;12.20;4.90;;;2.50;99.90;;;;;;4995108;28;20046;-69
2023/03/05 05:50:19;;;;;;;13.45;4.85;;;2.50;99.90;;;;;;5012449;28;20805;-69
2023/03/05 05:52:45;;;;;;;9.50;4.78;;;2.50;99.90;;;;;;5013144;28;20050;-69
2023/03/05 05:55:11;;;;;;;10.27;4.68;;;2.50;99.90;;;;;;5013302;28;20056;-69
2023/03/05 05:57:37;;;;;;;9.27;4.30;;;2.50;99.90;;;;;;4995188;28;20053;-70
2023/03/05 06:00:04;;;;;;;11.75;4.55;;;2.50;99.90;;;;;;5013258;28;20050;-69
2023/03/05 06:02:30;;;;;;;9.98;4.75;;;2.60;99.90;;;;;;5012646;28;20038;-70
2023/03/05 06:04:56;;;;;;;13.27;4.78;;;2.70;99.90;;;;;;4996212;28;20048;-71
2023/03/05 06:07:22;;;;;;;15.30;5.15;;;2.60;99.90;;;;;;4996119;28;20111;-69
2023/03/05 06:09:48;;;;;;;10.68;3.85;;;2.60;99.90;;;;;;5009275;28;20505;-71
2023/03/05 06:12:13;;;;;;;13.40;5.00;;;2.60;99.90;;;;;;5011262;28;20399;-69
2023/03/05 06:14:39;;;;;;;9.88;4.50;;;2.60;99.90;;;;;;4995593;28;20430;-69
2023/03/05 06:17:05;;;;;;;8.77;5.05;;;2.60;99.90;;;;;;5013205;28;20050;-70
2023/03/05 06:19:31;;;;;;;9.60;4.05;;;2.70;99.90;;;;;;5009113;28;20049;-70
2023/03/05 06:21:57;;;;;;;12.13;4.47;;;2.70;99.90;;;;;;4993329;28;20050;-71
2023/03/05 06:24:22;;;;;;;12.27;5.53;;;2.60;99.90;;;;;;5012311;28;20370;-70
2023/03/05 06:26:48;;;;;;;13.20;5.95;;;2.60;99.90;;;;;;4995392;28;20050;-70
2023/03/05 06:29:14;;;;;;;9.02;5.07;;;2.60;99.90;;;;;;5012028;28;20096;-69
2023/03/05 06:31:40;;;;;;;12.35;5.45;;;2.60;99.90;;;;;;5013281;28;20409;-70
2023/03/05 06:34:06;;;;;;;16.85;6.15;;;2.60;99.90;;;;;;5013943;28;20068;-70
2023/03/05 06:36:31;;;;;;;15.65;6.28;;;2.60;99.90;;;;;;5017882;28;20053;-70
2023/03/05 06:38:57;;;;;;;15.60;7.10;;;2.60;99.90;;;;;;5011890;28;20054;-70
2023/03/05 06:41:27;;;;;;;16.88;7.22;;;2.70;99.90;;;;;;4992240;28;20788;-69
2023/03/05 06:43:54;;;;;;;14.80;7.30;;;2.70;99.90;;;;;;5013802;28;20056;-69
2023/03/05 06:46:27;;;;;;;16.10;7.55;;;2.70;99.90;;;;;;5011857;28;20390;-70
2023/03/05 06:48:58;;;;;;;16.80;7.60;;;2.70;99.90;;;;;;4992460;28;20137;-69
2023/03/05 06:51:32;;;;;;;16.98;7.75;;;2.70;99.90;;;;;;5009322;28;20050;-69
2023/03/05 06:54:06;;;;;;;22.40;8.90;;;2.70;99.90;;;;;;5011746;28;20478;-71
2023/03/05 06:56:33;;;;;;;19.08;8.88;;;2.80;99.90;;;;;;5010989;28;20061;-70
2023/03/05 06:58:59;;;;;;;19.98;9.35;;;2.70;99.90;;;;;;5011701;28;20399;-70
2023/03/05 07:01:25;;;;;;;27.05;9.73;;;2.70;99.90;;;;;;4994194;28;20069;-70
2023/03/05 07:03:52;;;;;;;25.42;9.82;;;2.70;99.90;;;;;;4977878;28;20049;-69
2023/03/05 07:06:18;;;;;;;18.17;8.02;;;2.70;99.90;;;;;;5010808;28;20496;-70
2023/03/05 07:08:44;;;;;;;19.52;8.95;;;2.70;99.90;;;;;;4994892;28;20054;-70
2023/03/05 07:11:15;;;;;;;20.63;7.85;;;2.70;99.90;;;;;;5005518;28;20058;-71
2023/03/05 07:13:42;;;;;;;21.98;8.40;;;2.70;99.90;;;;;;4995306;28;20464;-69
2023/03/05 07:16:09;;;;;;;29.70;9.35;;;2.80;99.90;;;;;;5008837;28;20050;-70
2023/03/05 07:18:35;;;;;;;17.67;8.90;;;2.70;99.90;;;;;;4994532;28;20818;-70
2023/03/05 07:21:02;;;;;;;21.25;8.90;;;2.70;99.90;;;;;;5011140;28;20050;-70
2023/03/05 07:23:28;;;;;;;19.80;8.33;;;2.80;99.90;;;;;;5009627;28;20125;-71
2023/03/05 07:25:54;;;;;;;22.65;8.75;;;2.80;99.90;;;;;;4976111;28;20129;-70
2023/03/05 07:28:19;;;;;;;19.30;8.75;;;2.80;99.90;;;;;;4994634;28;20052;-70
2023/03/05 07:30:55;;;;;;;17.98;8.15;;;2.80;99.90;;;;;;5011371;28;20542;-70
2023/03/05 07:33:21;;;;;;;20.10;7.97;;;2.80;99.90;;;;;;4994249;28;20394;-71
2023/03/05 07:35:48;;;;;;;21.70;9.20;;;2.70;99.90;;;;;;4975537;28;20045;-70
2023/03/05 07:38:14;;;;;;;16.23;7.13;;;2.80;99.90;;;;;;4993331;28;20052;-71
2023/03/05 07:40:39;;;;;;;19.52;8.18;;;2.70;99.90;;;;;;4994279;28;20042;-70
2023/03/05 07:43:05;;;;;;;23.50;8.43;;;2.90;99.90;;;;;;5010430;28;20116;-70
2023/03/05 07:45:31;;;;;;;18.05;6.82;;;2.80;99.90;;;;;;5014900;28;20049;-71
2023/03/05 07:47:56;;;;;;;17.02;7.03;;;2.70;99.90;;;;;;4991161;28;20054;-71
2023/03/05 07:50:23;;;;;;;16.70;6.45;;;2.80;99.90;;;;;;5011065;28;20213;-70
2023/03/05 07:52:48;;;;;;;15.80;6.50;;;2.90;99.90;;;;;;5010992;28;20042;-71
2023/03/05 07:55:14;;;;;;;15.80;6.72;;;3.00;99.90;;;;;;5011082;28;20049;-71
2023/03/05 07:57:40;;;;;;;14.10;6.07;;;2.90;99.90;;;;;;5010623;28;20139;-71
2023/03/05 08:00:06;;;;;;;16.10;5.85;;;3.00;99.90;;;;;;5011826;28;20797;-71
2023/03/05 08:02:33;;;;;;;13.00;6.10;;;3.00;99.90;;;;;;4994189;28;20538;-70
2023/03/05 08:04:59;;;;;;;12.35;5.55;;;3.00;99.90;;;;;;5008937;28;20054;-70
2023/03/05 08:07:24;;;;;;;10.65;4.70;;;3.10;99.90;;;;;;4977244;28;20462;-70
2023/03/05 08:09:50;;;;;;;10.70;5.20;;;3.10;99.90;;;;;;5007292;28;20062;-70
2023/03/05 08:12:16;;;;;;;12.48;5.45;;;3.10;99.90;;;;;;4993773;28;20060;-71
2023/03/05 08:14:42;;;;;;;11.55;5.32;;;3.20;99.90;;;;;;5010440;28;20054;-70
2023/03/05 08:17:08;;;;;;;9.18;4.72;;;3.20;99.90;;;;;;4990064;28;20054;-72
2023/03/05 08:19:33;;;;;;;8.07;4.55;;;3.20;99.90;;;;;;5007500;28;20467;-70
2023/03/05 08:21:59;;;;;;;7.60;3.78;;;3.20;99.90;;;;;;4993454;28;20042;-70
2023/03/05 08:24:28;;;;;;;12.65;3.47;;;3.20;99.90;;;;;;5011100;28;20053;-70
2023/03/05 08:26:58;;;;;;;13.70;4.18;;;3.20;99.90;;;;;;5007476;28;20065;-70
2023/03/05 08:29:27;;;;;;;9.20;4.40;;;3.20;99.90;;;;;;4991346;28;20053;-70
2023/03/05 08:31:53;;;;;;;9.13;3.45;;;3.30;99.90;;;;;;4994442;28;20049;-71
2023/03/05 08:34:20;;;;;;;10.75;3.35;;;3.30;99.90;;;;;;5011227;28;20046;-71
2023/03/05 08:36:46;;;;;;;11.93;3.80;;;3.30;99.90;;;;;;4993982;28;20136;-71
2023/03/05 08:39:11;;;;;;;10.65;4.40;;;3.10;99.90;;;;;;5010307;28;20107;-72
2023/03/05 08:41:37;;;;;;;13.10;4.60;;;3.10;99.90;;;;;;5010592;28;20046;-71
2023/03/05 08:44:03;;;;;;;10.43;4.50;;;3.20;99.90;;;;;;5009863;28;20556;-70
2023/03/05 08:46:29;;;;;;;7.47;3.88;;;3.10;99.90;;;;;;5008835;28;20434;-71
2023/03/05 08:48:55;;;;;;;7.93;3.63;;;3.00;99.90;;;;;;4991553;28;20143;-72
2023/03/05 08:51:24;;;;;;;8.80;3.97;;;3.10;99.90;;;;;;5009452;28;20085;-70
2023/03/05 08:53:50;;;;;;;11.38;4.80;;;3.10;99.90;;;;;;4991423;28;20115;-71
2023/03/05 08:56:16;;;;;;;12.10;4.90;;;3.10;99.90;;;;;;4976890;28;20050;-70
2023/03/05 08:58:42;;;;;;;9.52;5.18;;;3.10;99.90;;;;;;4993104;28;20046;-70
2023/03/05 09:01:08;;;;;;;9.20;4.35;;;3.20;99.90;;;;;;4990415;28;20046;-71
2023/03/05 09:03:34;;;;;;;10.00;4.32;;;3.10;99.90;;;;;;5010339;28;20444;-71
2023/03/05 09:06:01;;;;;;;11.32;4.47;;;3.20;99.90;;;;;;5009656;28;20038;-70
2023/03/05 09:08:27;;;;;;;9.40;3.25;;;3.30;99.90;;;;;;5009864;28;20485;-70
2023/03/05 09:10:53;;;;;;;9.48;3.35;;;3.30;99.90;;;;;;4989269;28;20387;-71
2023/03/05 09:13:19;;;;;;;9.25;3.00;;;3.30;99.90;;;;;;5014069;28;20045;-71
2023/03/05 09:15:56;;;;;;;5.22;2.85;;;3.40;99.90;;;;;;5010418;28;20046;-72
2023/03/05 09:18:21;;;;;;;7.13;2.70;;;3.50;99.90;;;;;;4992960;28;20115;-71
2023/03/05 09:20:47;;;;;;;9.63;2.78;;;3.50;99.90;;;;;;5003724;28;20049;-72
2023/03/05 09:23:13;;;;;;;5.13;2.40;;;3.60;99.90;;;;;;5014080;28;20057;-72
2023/03/05 09:25:40;;;;;;;6.72;2.30;;;3.70;99.90;;;;;;5009554;28;20053;-71
2023/03/05 09:28:07;;;;;;;6.25;2.80;;;3.70;99.90;;;;;;4986420;28;20080;-72
2023/03/05 09:30:33;;;;;;;4.43;2.53;;;3.70;99.90;;;;;;5003015;28;20578;-72
2023/03/05 09:33:00;;;;;;;5.65;2.60;;;3.70;99.90;;;;;;5009488;28;20053;-71
2023/03/05 09:35:26;;;;;;;8.77;2.53;;;3.70;99.90;;;;;;4976847;28;20046;-71
2023/03/05 09:37:52;;;;;;;9.13;2.53;;;3.70;99.90;;;;;;5009166;28;20056;-72
2023/03/05 09:40:18;;;;;;;7.38;2.35;;;3.60;99.90;;;;;;5009325;28;20525;-72
2023/03/05 09:42:55;;;;;;;5.63;2.50;;;3.50;99.90;;;;;;4992950;28;20077;-70
2023/03/05 09:45:24;;;;;;;4.50;1.88;;;3.30;99.90;;;;;;5018091;28;20144;-72
2023/03/05 09:47:55;;;;;;;6.72;2.47;;;3.50;99.90;;;;;;5009167;28;20403;-72
2023/03/05 09:50:54;;;;;;;10.18;2.58;;;3.60;99.90;;;;;;5009515;28;20045;-71
2023/03/05 09:53:28;;;;;;;9.18;2.55;;;3.70;99.90;;;;;;4996329;28;20379;-72
2023/03/05 09:55:55;;;;;;;6.22;2.20;;;3.80;99.90;;;;;;5006821;28;20046;-72
2023/03/05 09:58:37;;;;;;;7.63;2.63;;;3.80;99.90;;;;;;5009472;28;20046;-71
2023/03/05 10:01:13;;;;;;;7.75;2.30;;;3.80;99.90;;;;;;5006394;28;20092;-70
2023/03/05 10:04:18;;;;;;;7.85;2.92;;;3.90;99.90;;;;;;5007249;28;20411;-71
2023/03/05 10:07:03;;;;;;;6.00;2.13;;;4.10;99.90;;;;;;4995973;28;20049;-72
2023/03/05 10:10:03;;;;;;;6.78;2.05;;;4.00;99.90;;;;;;5000002;28;20061;-71
2023/03/05 10:12:44;;;;;;;7.82;2.05;;;4.10;99.90;;;;;;4973663;28;20123;-71
2023/03/05 10:15:35;;;;;;;5.45;1.83;;;4.20;99.90;;;;;;4979946;28;20046;-71
2023/03/05 10:18:04;;;;;;;5.50;2.17;;;4.00;99.90;;;;;;5013322;28;20429;-71
2023/03/05 10:20:49;;;;;;;9.55;2.30;;;4.10;99.90;;;;;;5012889;28;20053;-71
2023/03/05 10:23:24;;;;;;;6.32;1.80;;;4.10;99.90;;;;;;5012123;28;20046;-76
2023/03/05 10:26:05;;;;;;;7.28;2.00;;;4.40;99.90;;;;;;4997019;28;20050;-75
2023/03/05 10:28:53;;;;;;;7.05;2.13;;;4.60;99.90;;;;;;5013267;28;20050;-71
2023/03/05 10:31:41;;;;;;;4.68;1.80;;;4.50;99.90;;;;;;4989117;28;20057;-71
2023/03/05 10:34:24;;;;;;;7.57;2.10;;;4.30;99.90;;;;;;5009703;28;20503;-70
2023/03/05 10:37:14;;;;;;;4.68;1.48;;;4.00;99.90;;;;;;5016819;28;20050;-72
2023/03/05 10:39:42;;;;;;;7.25;1.80;;;3.80;99.90;;;;;;4991614;28;20042;-71
2023/03/05 10:42:29;;;;;;;3.78;1.23;;;3.80;99.90;;;;;;5000593;28;20072;-70
2023/03/05 10:44:59;;;;;;;2.87;1.10;;;3.80;99.90;;;;;;5008543;28;20050;-72
2023/03/05 10:47:29;;;;;;;4.43;1.55;;;3.70;99.90;;;;;;5009697;28;20128;-72
2023/03/05 10:49:55;;;;;;;3.30;1.40;;;3.70;99.90;;;;;;4996248;28;20053;-71
2023/03/05 10:52:32;;;;;;;3.08;1.27;;;3.70;99.90;;;;;;4995175;28;20052;-70
2023/03/05 10:54:58;;;;;;;3.80;1.40;;;3.70;99.90;;;;;;5007233;28;20761;-70
2023/03/05 10:57:25;;;;;;;4.25;1.60;;;3.70;99.90;;;;;;4996684;28;20088;-71
2023/03/05 10:59:59;;;;;;;8.80;1.75;;;3.80;99.90;;;;;;5011940;28;20054;-71
2023/03/05 11:02:27;;;;;;;3.28;1.75;;;3.70;99.90;;;;;;5009973;28;20041;-70
2023/03/05 11:04:55;;;;;;;7.10;1.50;;;3.80;99.90;;;;;;5011763;28;20038;-71
2023/03/05 11:07:21;;;;;;;7.50;2.22;;;3.90;99.90;;;;;;5012383;28;20604;-71
2023/03/05 11:10:17;;;;;;;6.32;1.80;;;3.90;99.90;;;;;;5017323;28;20097;-70
2023/03/05 11:12:44;;;;;;;5.15;1.60;;;4.00;99.90;;;;;;5007511;28;20490;-70
2023/03/05 11:15:12;;;;;;;5.93;1.77;;;3.90;99.90;;;;;;5011405;28;20045;-71
2023/03/05 11:17:41;;;;;;;;;;;3.90;99.90;;;;;;5012569;28;20058;-70
2023/03/05 11:20:30;;;;;;;6.55;1.52;;;3.90;99.90;;;;;;5013670;28;19951;-71
2023/03/05 11:23:17;;;;;;;3.67;1.80;;;3.90;99.90;;;;;;4991757;28;20047;-71
2023/03/05 11:25:56;;;;;;;8.55;2.05;;;4.10;99.90;;;;;;5007771;28;20049;-71
2023/03/05 11:28:23;;;;;;;6.55;2.10;;;4.10;99.90;;;;;;5010955;28;20045;-71
2023/03/05 11:31:20;;;;;;;7.00;2.42;;;4.10;99.90;;;;;;5009861;28;20057;-70
2023/03/05 11:33:55;;;;;;;9.55;2.17;;;4.50;99.90;;;;;;4998852;28;20062;-71
2023/03/05 11:36:25;;;;;;;3.28;1.67;;;4.40;99.90;;;;;;4990416;28;20490;-72
2023/03/05 11:39:16;;;;;;;5.80;2.38;;;5.00;99.90;;;;;;5013015;28;20133;-73
2023/03/05 11:42:04;;;;;;;4.05;1.60;;;5.30;99.90;;;;;;5013572;28;20048;-72
2023/03/05 11:44:45;;;;;;;6.10;1.75;;;6.50;99.90;;;;;;4994315;28;20050;-71
2023/03/05 11:47:25;;;;;;;6.47;1.80;;;6.10;99.90;;;;;;5008424;28;20041;-72
2023/03/05 11:50:14;;;;;;;8.05;1.67;;;5.20;99.90;;;;;;5011845;28;20064;-71
2023/03/05 11:52:53;;;;;;;9.93;1.92;;;4.80;99.90;;;;;;5001094;28;20100;-71
2023/03/05 11:55:39;;;;;;;2.67;1.35;;;4.80;99.90;;;;;;4988613;28;20061;-71
2023/03/05 11:58:32;;;;;;;6.72;1.98;;;4.80;99.90;;;;;;4994498;28;20048;-71
2023/03/05 12:00:59;;;;;;;6.75;1.85;;;5.00;99.90;;;;;;5006891;28;20041;-71
2023/03/05 12:03:33;;;;;;;5.10;1.83;;;5.00;99.90;;;;;;5010252;28;20104;-71
2023/03/05 12:06:05;;;;;;;4.05;1.77;;;5.10;99.90;;;;;;4992072;28;20038;-72
2023/03/05 12:08:34;;;;;;;6.40;1.88;;;5.60;99.90;;;;;;5011654;28;20069;-71
2023/03/05 12:11:17;;;;;;;2.50;1.45;;;5.60;99.90;;;;;;5013664;28;20670;-71
2023/03/05 12:13:49;;;;;;;6.22;1.52;;;5.20;99.90;;;;;;4994409;28;20081;-71
2023/03/05 12:16:27;;;;;;;4.20;1.42;;;4.90;99.90;;;;;;4985452;28;20045;-72
2023/03/05 12:19:14;;;;;;;6.25;1.67;;;4.80;99.90;;;;;;5020077;28;20050;-70
2023/03/05 12:21:40;;;;;;;5.65;1.67;;;4.60;99.90;;;;;;5017273;28;20457;-71
2023/03/05 12:24:24;;;;;;;5.95;2.00;;;4.70;99.90;;;;;;5010160;28;20049;-71
2023/03/05 12:27:02;;;;;;;3.28;1.27;;;4.60;99.90;;;;;;4994046;28;20049;-71
2023/03/05 12:29:45;;;;;;;5.55;1.80;;;4.50;99.90;;;;;;5012351;28;20049;-71
2023/03/05 12:32:34;;;;;;;4.75;1.30;;;4.50;99.90;;;;;;5007629;28;20049;-72
2023/03/05 12:35:03;;;;;;;4.18;1.20;;;4.60;99.90;;;;;;5000774;28;20523;-72
2023/03/05 12:37:28;;;;;;;5.22;1.35;;;4.60;99.90;;;;;;5012995;28;20065;-71
2023/03/05 12:40:11;;;;;;;3.15;1.30;;;4.80;99.90;;;;;;5005190;28;20042;-72
2023/03/05 12:42:37;;;;;;;9.57;2.30;;;4.70;99.90;;;;;;5010058;28;20046;-72
2023/03/05 12:45:09;;;;;;;6.68;1.60;;;4.70;99.90;;;;;;4993793;28;20042;-72
2023/03/05 12:47:58;;;;;;;5.18;1.55;;;4.60;99.90;;;;;;4999055;28;20066;-72
2023/03/05 12:50:27;;;;;;;6.82;1.73;;;4.60;99.90;;;;;;4991853;28;20053;-72
2023/03/05 12:53:05;;;;;;;2.67;0.98;;;4.70;99.90;;;;;;5007838;28;20046;-74
2023/03/05 12:55:34;;;;;;;5.07;1.25;;;6.40;99.90;;;;;;5009893;28;20777;-72
2023/03/05 12:58:19;;;;;;;4.57;0.98;;;8.10;99.90;;;;;;5009567;28;20112;-70
2023/03/05 13:00:51;;;;;;;3.95;1.05;;;9.00;96.30;;;;;;4998324;28;20048;-73